createdAt,value
2017-03-19T00:00:56.221Z,1002.63
2017-03-19T00:01:56.190Z,1002.64
2017-03-19T00:02:56.181Z,1002.62
2017-03-19T00:03:56.155Z,1002.57
2017-03-19T00:04:56.131Z,1002.53
2017-03-19T00:05:56.119Z,1002.56
2017-03-19T00:06:56.094Z,1002.58
2017-03-19T00:07:56.079Z,1002.57
2017-03-19T00:08:56.061Z,1002.59
2017-03-19T00:09:56.036Z,1002.64
2017-03-19T00:10:56.014Z,1002.67
2017-03-19T00:11:55.993Z,1002.61
2017-03-19T00:12:55.974Z,1002.61
2017-03-19T00:13:55.955Z,1002.6
2017-03-19T00:14:55.936Z,1002.61
2017-03-19T00:15:55.925Z,1002.59
2017-03-19T00:16:55.894Z,1002.65
2017-03-19T00:17:55.872Z,1002.65
2017-03-19T00:18:55.853Z,1002.67
2017-03-19T00:19:55.833Z,1002.66
2017-03-19T00:20:55.810Z,1002.69
2017-03-19T00:21:55.793Z,1002.72
2017-03-19T00:22:55.772Z,1002.67
2017-03-19T00:23:55.787Z,1002.73
2017-03-19T00:24:55.732Z,1002.75
2017-03-19T00:25:55.712Z,1002.76
2017-03-19T00:26:55.697Z,1002.74
2017-03-19T00:27:55.676Z,1002.74
2017-03-19T00:28:55.653Z,1002.72
2017-03-19T00:29:55.635Z,1002.73
2017-03-19T00:30:55.612Z,1002.75
2017-03-19T00:31:55.592Z,1002.76
2017-03-19T00:32:55.571Z,1002.73
2017-03-19T00:33:55.565Z,1002.76
2017-03-19T00:34:55.537Z,1002.74
2017-03-19T00:35:55.513Z,1002.72
2017-03-19T00:36:55.489Z,1002.7
2017-03-19T00:37:55.470Z,1002.68
2017-03-19T00:38:55.453Z,1002.66
2017-03-19T00:39:55.430Z,1002.66
2017-03-19T00:40:55.407Z,1002.7
2017-03-19T00:41:55.389Z,1002.7
2017-03-19T00:42:55.370Z,1002.77
2017-03-19T00:43:55.350Z,1002.79
2017-03-19T00:44:55.329Z,1002.8
2017-03-19T00:45:55.308Z,1002.81
2017-03-19T00:46:55.289Z,1002.82
2017-03-19T00:47:55.272Z,1002.83
2017-03-19T00:48:55.247Z,1002.81
2017-03-19T00:49:55.235Z,1002.79
2017-03-19T00:50:55.214Z,1002.78
2017-03-19T00:51:55.185Z,1002.71
2017-03-19T00:52:55.179Z,1002.65
2017-03-19T00:53:55.147Z,1002.62
2017-03-19T00:54:55.128Z,1002.58
2017-03-19T00:55:55.104Z,1002.5
2017-03-19T00:56:55.089Z,1002.45
2017-03-19T00:57:55.064Z,1002.46
2017-03-19T00:58:55.048Z,1002.42
2017-03-19T00:59:55.024Z,1002.36
2017-03-19T01:00:55.002Z,1002.42
2017-03-19T01:01:54.986Z,1002.36
2017-03-19T01:02:54.965Z,1002.33
2017-03-19T01:03:54.949Z,1002.35
2017-03-19T01:04:54.927Z,1002.34
2017-03-19T01:05:54.911Z,1002.35
2017-03-19T01:06:54.891Z,1002.36
2017-03-19T01:07:54.867Z,1002.41
2017-03-19T01:08:54.843Z,1002.39
2017-03-19T01:09:54.822Z,1002.44
2017-03-19T01:10:54.804Z,1002.44
2017-03-19T01:11:54.788Z,1002.44
2017-03-19T01:12:54.763Z,1002.45
2017-03-19T01:13:54.746Z,1002.48
2017-03-19T01:14:54.723Z,1002.45
2017-03-19T01:15:54.705Z,1002.45
2017-03-19T01:16:54.681Z,1002.4
2017-03-19T01:17:54.664Z,1002.39
2017-03-19T01:18:54.640Z,1002.34
2017-03-19T01:19:54.625Z,1002.3
2017-03-19T01:20:54.601Z,1002.27
2017-03-19T01:21:54.592Z,1002.24
2017-03-19T01:22:54.566Z,1002.21
2017-03-19T01:23:54.546Z,1002.25
2017-03-19T01:24:54.518Z,1002.21
2017-03-19T01:25:54.507Z,1002.19
2017-03-19T01:26:54.486Z,1002.17
2017-03-19T01:27:54.467Z,1002.15
2017-03-19T01:28:54.440Z,1002.14
2017-03-19T01:29:54.425Z,1002.14
2017-03-19T01:30:54.404Z,1002.18
2017-03-19T01:31:54.374Z,1002.15
2017-03-19T01:32:54.363Z,1002.13
2017-03-19T01:33:54.342Z,1002.05
2017-03-19T01:34:54.319Z,1002.06
2017-03-19T01:35:54.297Z,1002.09
2017-03-19T01:36:54.276Z,1002.07
2017-03-19T01:37:54.260Z,1002.08
2017-03-19T01:38:54.238Z,1002.12
2017-03-19T01:39:54.270Z,1002.15
2017-03-19T01:40:54.197Z,1002.19
2017-03-19T01:41:54.177Z,1002.26
2017-03-19T01:42:54.159Z,1002.26
2017-03-19T01:43:54.136Z,1002.25
2017-03-19T01:44:54.117Z,1002.2
2017-03-19T01:45:54.097Z,1002.18
2017-03-19T01:46:54.074Z,1002.14
2017-03-19T01:47:54.065Z,1002.09
2017-03-19T01:48:54.035Z,1002.09
2017-03-19T01:49:54.060Z,1002.1
2017-03-19T01:50:53.995Z,1002.11
2017-03-19T01:51:53.968Z,1002.16
2017-03-19T01:52:53.954Z,1002.12
2017-03-19T01:53:53.933Z,1002.11
2017-03-19T01:54:53.913Z,1002.09
2017-03-19T01:55:53.892Z,1002.12
2017-03-19T01:56:53.870Z,1002.08
2017-03-19T01:57:53.847Z,1002.08
2017-03-19T01:58:53.831Z,1002.07
2017-03-19T01:59:53.810Z,1002.04
2017-03-19T02:00:53.788Z,1002
2017-03-19T02:01:53.767Z,1001.96
2017-03-19T02:02:53.745Z,1001.93
2017-03-19T02:03:53.727Z,1001.94
2017-03-19T02:04:53.743Z,1001.93
2017-03-19T02:05:53.686Z,1001.89
2017-03-19T02:06:53.665Z,1001.91
2017-03-19T02:07:53.649Z,1001.88
2017-03-19T02:08:53.622Z,1001.85
2017-03-19T02:09:53.606Z,1001.84
2017-03-19T02:10:53.583Z,1001.87
2017-03-19T02:11:53.563Z,1001.83
2017-03-19T02:12:53.542Z,1001.82
2017-03-19T02:13:53.521Z,1001.8
2017-03-19T02:14:53.511Z,1001.77
2017-03-19T02:15:53.482Z,1001.8
2017-03-19T02:16:53.459Z,1001.77
2017-03-19T02:17:53.440Z,1001.79
2017-03-19T02:18:53.424Z,1001.82
2017-03-19T02:19:53.398Z,1001.79
2017-03-19T02:20:53.379Z,1001.79
2017-03-19T02:21:53.368Z,1001.75
2017-03-19T02:22:53.339Z,1001.74
2017-03-19T02:23:53.315Z,1001.74
2017-03-19T02:24:53.298Z,1001.69
2017-03-19T02:25:53.285Z,1001.67
2017-03-19T02:26:53.255Z,1001.64
2017-03-19T02:27:53.234Z,1001.66
2017-03-19T02:28:53.226Z,1001.69
2017-03-19T02:29:53.195Z,1001.65
2017-03-19T02:30:53.172Z,1001.63
2017-03-19T02:31:53.151Z,1001.61
2017-03-19T02:32:53.135Z,1001.62
2017-03-19T02:33:53.112Z,1001.58
2017-03-19T02:34:53.098Z,1001.58
2017-03-19T02:35:53.071Z,1001.57
2017-03-19T02:36:53.060Z,1001.53
2017-03-19T02:37:53.029Z,1001.53
2017-03-19T02:38:53.019Z,1001.52
2017-03-19T02:39:52.989Z,1001.51
2017-03-19T02:40:52.977Z,1001.48
2017-03-19T02:41:52.946Z,1001.46
2017-03-19T02:42:52.927Z,1001.47
2017-03-19T02:43:52.910Z,1001.45
2017-03-19T02:44:52.893Z,1001.39
2017-03-19T02:45:52.876Z,1001.39
2017-03-19T02:46:52.847Z,1001.41
2017-03-19T02:47:52.828Z,1001.41
2017-03-19T02:48:52.815Z,1001.4
2017-03-19T02:49:52.793Z,1001.4
2017-03-19T02:50:52.770Z,1001.37
2017-03-19T02:51:52.755Z,1001.39
2017-03-19T02:52:52.724Z,1001.38
2017-03-19T02:53:52.706Z,1001.34
2017-03-19T02:54:52.690Z,1001.31
2017-03-19T02:55:52.664Z,1001.31
2017-03-19T02:56:52.642Z,1001.33
2017-03-19T02:57:52.628Z,1001.31
2017-03-19T02:58:52.609Z,1001.25
2017-03-19T02:59:52.587Z,1001.23
2017-03-19T03:00:52.565Z,1001.21
2017-03-19T03:01:52.542Z,1001.2
2017-03-19T03:02:52.525Z,1001.22
2017-03-19T03:03:52.505Z,1001.26
2017-03-19T03:04:52.484Z,1001.23
2017-03-19T03:05:52.464Z,1001.25
2017-03-19T03:06:52.445Z,1001.23
2017-03-19T03:07:52.422Z,1001.27
2017-03-19T03:08:52.401Z,1001.23
2017-03-19T03:09:52.381Z,1001.27
2017-03-19T03:10:52.359Z,1001.25
2017-03-19T03:11:52.389Z,1001.25
2017-03-19T03:12:52.321Z,1001.24
2017-03-19T03:13:52.299Z,1001.22
2017-03-19T03:14:52.279Z,1001.24
2017-03-19T03:15:52.360Z,1001.24
2017-03-19T03:16:52.236Z,1001.25
2017-03-19T03:17:52.270Z,1001.25
2017-03-19T03:18:52.198Z,1001.24
2017-03-19T03:19:52.277Z,1001.27
2017-03-19T03:20:52.156Z,1001.28
2017-03-19T03:21:52.149Z,1001.27
2017-03-19T03:22:52.117Z,1001.24
2017-03-19T03:23:52.196Z,1001.27
2017-03-19T03:24:52.073Z,1001.26
2017-03-19T03:25:52.058Z,1001.27
2017-03-19T03:26:52.032Z,1001.23
2017-03-19T03:27:52.019Z,1001.25
2017-03-19T03:28:51.991Z,1001.25
2017-03-19T03:29:51.978Z,1001.21
2017-03-19T03:30:51.952Z,1001.21
2017-03-19T03:31:51.934Z,1001.24
2017-03-19T03:32:51.909Z,1001.21
2017-03-19T03:33:51.943Z,1001.21
2017-03-19T03:34:51.869Z,1001.19
2017-03-19T03:35:51.928Z,1001.19
2017-03-19T03:36:51.827Z,1001.19
2017-03-19T03:37:51.817Z,1001.2
2017-03-19T03:38:51.795Z,1001.2
2017-03-19T03:39:51.770Z,1001.16
2017-03-19T03:40:51.752Z,1001.16
2017-03-19T03:41:51.734Z,1001.19
2017-03-19T03:42:51.708Z,1001.13
2017-03-19T03:43:51.799Z,1001.1
2017-03-19T03:44:51.667Z,1001.08
2017-03-19T03:45:51.652Z,1001.05
2017-03-19T03:46:51.634Z,1001.1
2017-03-19T03:47:51.605Z,1001.05
2017-03-19T03:48:51.586Z,1001.05
2017-03-19T03:49:51.567Z,1001.02
2017-03-19T03:50:51.552Z,1001.07
2017-03-19T03:51:51.531Z,1001.02
2017-03-19T03:52:51.506Z,1001.01
2017-03-19T03:53:51.490Z,1000.99
2017-03-19T03:54:51.462Z,1000.97
2017-03-19T03:55:51.443Z,1000.92
2017-03-19T03:56:51.421Z,1000.92
2017-03-19T03:57:51.402Z,1000.89
2017-03-19T03:58:51.380Z,1000.89
2017-03-19T03:59:51.360Z,1000.87
2017-03-19T04:00:51.351Z,1000.83
2017-03-19T04:01:51.315Z,1000.82
2017-03-19T04:02:51.303Z,1000.8
2017-03-19T04:03:51.283Z,1000.77
2017-03-19T04:04:51.258Z,1000.73
2017-03-19T04:05:51.243Z,1000.71
2017-03-19T04:06:51.220Z,1000.63
2017-03-19T04:07:51.208Z,1000.71
2017-03-19T04:08:51.174Z,1000.7
2017-03-19T04:09:51.161Z,1000.65
2017-03-19T04:10:51.135Z,1000.66
2017-03-19T04:11:51.118Z,1000.64
2017-03-19T04:12:51.092Z,1000.62
2017-03-19T04:13:51.075Z,1000.6
2017-03-19T04:14:51.057Z,1000.6
2017-03-19T04:15:51.038Z,1000.56
2017-03-19T04:16:51.019Z,1000.56
2017-03-19T04:17:50.999Z,1000.62
2017-03-19T04:18:50.977Z,1000.56
2017-03-19T04:19:50.952Z,1000.57
2017-03-19T04:20:50.936Z,1000.59
2017-03-19T04:21:50.915Z,1000.6
2017-03-19T04:22:50.891Z,1000.59
2017-03-19T04:23:50.868Z,1000.59
2017-03-19T04:24:50.851Z,1000.55
2017-03-19T04:25:50.828Z,1000.58
2017-03-19T04:26:50.811Z,1000.54
2017-03-19T04:27:50.789Z,1000.59
2017-03-19T04:28:50.770Z,1000.59
2017-03-19T04:29:50.749Z,1000.61
2017-03-19T04:30:50.729Z,1000.54
2017-03-19T04:31:50.707Z,1000.56
2017-03-19T04:32:50.690Z,1000.57
2017-03-19T04:33:50.675Z,1000.55
2017-03-19T04:34:50.647Z,1000.51
2017-03-19T04:35:50.628Z,1000.51
2017-03-19T04:36:50.606Z,1000.47
2017-03-19T04:37:50.586Z,1000.48
2017-03-19T04:38:50.565Z,1000.47
2017-03-19T04:39:50.545Z,1000.46
2017-03-19T04:40:50.524Z,1000.47
2017-03-19T04:41:50.502Z,1000.5
2017-03-19T04:42:50.488Z,1000.48
2017-03-19T04:43:50.472Z,1000.47
2017-03-19T04:44:50.448Z,1000.44
2017-03-19T04:45:50.423Z,1000.44
2017-03-19T04:46:50.403Z,1000.43
2017-03-19T04:47:50.385Z,1000.4
2017-03-19T04:48:50.368Z,1000.37
2017-03-19T04:49:50.371Z,1000.38
2017-03-19T04:50:50.323Z,1000.32
2017-03-19T04:51:50.305Z,1000.31
2017-03-19T04:52:50.283Z,1000.28
2017-03-19T04:53:50.263Z,1000.28
2017-03-19T04:54:50.245Z,1000.3
2017-03-19T04:55:50.226Z,1000.31
2017-03-19T04:56:50.206Z,1000.33
2017-03-19T04:57:50.177Z,1000.39
2017-03-19T04:58:50.164Z,1000.38
2017-03-19T04:59:50.142Z,1000.38
2017-03-19T05:00:50.118Z,1000.39
2017-03-19T05:01:50.102Z,1000.41
2017-03-19T05:02:50.078Z,1000.35
2017-03-19T05:03:50.060Z,1000.36
2017-03-19T05:04:50.036Z,1000.34
2017-03-19T05:05:50.021Z,1000.34
2017-03-19T05:06:49.996Z,1000.28
2017-03-19T05:07:49.980Z,1000.26
2017-03-19T05:08:49.955Z,1000.23
2017-03-19T05:09:49.935Z,1000.23
2017-03-19T05:10:49.918Z,1000.25
2017-03-19T05:11:49.893Z,1000.27
2017-03-19T05:12:49.879Z,1000.25
2017-03-19T05:13:49.855Z,1000.16
2017-03-19T05:14:49.837Z,1000.2
2017-03-19T05:15:49.817Z,1000.22
2017-03-19T05:16:49.795Z,1000.24
2017-03-19T05:17:49.776Z,1000.34
2017-03-19T05:18:49.754Z,1000.36
2017-03-19T05:19:49.744Z,1000.34
2017-03-19T05:20:49.715Z,1000.41
2017-03-19T05:21:49.693Z,1000.39
2017-03-19T05:22:49.672Z,1000.33
2017-03-19T05:23:49.662Z,1000.29
2017-03-19T05:24:49.636Z,1000.28
2017-03-19T05:25:49.618Z,1000.26
2017-03-19T05:26:49.600Z,1000.31
2017-03-19T05:27:49.572Z,1000.23
2017-03-19T05:28:49.552Z,1000.31
2017-03-19T05:29:49.538Z,1000.27
2017-03-19T05:30:49.512Z,1000.24
2017-03-19T05:31:49.497Z,1000.15
2017-03-19T05:32:49.478Z,1000.19
2017-03-19T05:33:49.450Z,1000.18
2017-03-19T05:34:49.432Z,1000.14
2017-03-19T05:35:49.414Z,1000.21
2017-03-19T05:36:49.393Z,1000.12
2017-03-19T05:37:49.375Z,1000.11
2017-03-19T05:38:49.351Z,1000.15
2017-03-19T05:39:49.333Z,1000.14
2017-03-19T05:40:49.310Z,1000.15
2017-03-19T05:41:49.293Z,1000.17
2017-03-19T05:42:49.272Z,1000.14
2017-03-19T05:43:49.252Z,1000.1
2017-03-19T05:44:49.234Z,1000.08
2017-03-19T05:45:49.213Z,1000.09
2017-03-19T05:46:49.190Z,1000.04
2017-03-19T05:47:49.178Z,1000.02
2017-03-19T05:48:49.149Z,1000.01
2017-03-19T05:49:49.129Z,1000.05
2017-03-19T05:50:49.110Z,1000
2017-03-19T05:51:49.087Z,1000.03
2017-03-19T05:52:49.077Z,999.98
2017-03-19T05:53:49.050Z,1000
2017-03-19T05:54:49.035Z,999.97
2017-03-19T05:55:49.011Z,999.92
2017-03-19T05:56:49.000Z,999.85
2017-03-19T05:57:48.972Z,999.91
2017-03-19T05:58:48.962Z,999.94
2017-03-19T05:59:48.934Z,999.86
2017-03-19T06:00:48.909Z,999.93
2017-03-19T06:01:48.891Z,999.95
2017-03-19T06:02:48.872Z,999.89
2017-03-19T06:03:48.852Z,999.95
2017-03-19T06:04:48.827Z,999.89
2017-03-19T06:05:48.810Z,999.93
2017-03-19T06:06:48.789Z,999.9
2017-03-19T06:07:48.770Z,999.91
2017-03-19T06:08:48.749Z,999.96
2017-03-19T06:09:48.734Z,1000.01
2017-03-19T06:10:48.717Z,999.98
2017-03-19T06:11:48.687Z,999.91
2017-03-19T06:12:48.677Z,999.93
2017-03-19T06:13:48.654Z,999.94
2017-03-19T06:14:48.635Z,999.97
2017-03-19T06:15:48.614Z,999.97
2017-03-19T06:16:48.595Z,999.98
2017-03-19T06:17:48.569Z,999.98
2017-03-19T06:18:48.557Z,999.98
2017-03-19T06:19:48.533Z,999.89
2017-03-19T06:20:48.513Z,999.92
2017-03-19T06:21:48.491Z,999.87
2017-03-19T06:22:48.471Z,999.91
2017-03-19T06:23:48.451Z,999.83
2017-03-19T06:24:48.432Z,999.9
2017-03-19T06:25:48.416Z,999.82
2017-03-19T06:26:48.395Z,999.88
2017-03-19T06:27:48.373Z,1000.02
2017-03-19T06:28:48.360Z,999.85
2017-03-19T06:29:48.333Z,999.81
2017-03-19T06:30:48.314Z,999.83
2017-03-19T06:31:48.291Z,999.77
2017-03-19T06:32:48.277Z,999.71
2017-03-19T06:33:48.251Z,999.73
2017-03-19T06:34:48.238Z,999.7
2017-03-19T06:35:48.241Z,999.66
2017-03-19T06:36:48.195Z,999.69
2017-03-19T06:37:48.176Z,999.68
2017-03-19T06:38:48.153Z,999.74
2017-03-19T06:39:48.131Z,999.72
2017-03-19T06:40:48.119Z,999.72
2017-03-19T06:41:48.093Z,999.77
2017-03-19T06:42:48.074Z,999.7
2017-03-19T06:43:48.053Z,999.68
2017-03-19T06:44:48.040Z,999.69
2017-03-19T06:45:48.020Z,999.64
2017-03-19T06:46:47.994Z,999.67
2017-03-19T06:47:47.982Z,999.67
2017-03-19T06:48:47.961Z,999.66
2017-03-19T06:49:47.939Z,999.61
2017-03-19T06:50:47.917Z,999.61
2017-03-19T06:51:47.897Z,999.59
2017-03-19T06:52:47.874Z,999.56
2017-03-19T06:53:47.855Z,999.58
2017-03-19T06:54:47.844Z,999.56
2017-03-19T06:55:47.826Z,999.55
2017-03-19T06:56:47.796Z,999.52
2017-03-19T06:57:47.783Z,999.55
2017-03-19T06:58:47.762Z,999.48
2017-03-19T06:59:47.741Z,999.5
2017-03-19T07:00:47.719Z,999.55
2017-03-19T07:01:47.704Z,999.59
2017-03-19T07:02:47.677Z,999.58
2017-03-19T07:03:47.661Z,999.59
2017-03-19T07:04:47.640Z,999.58
2017-03-19T07:05:47.619Z,999.59
2017-03-19T07:06:47.606Z,999.6
2017-03-19T07:07:47.584Z,999.54
2017-03-19T07:08:47.571Z,999.55
2017-03-19T07:09:47.539Z,999.58
2017-03-19T07:10:47.532Z,999.55
2017-03-19T07:11:47.509Z,999.51
2017-03-19T07:12:47.485Z,999.53
2017-03-19T07:13:47.467Z,999.5
2017-03-19T07:14:47.447Z,999.49
2017-03-19T07:15:47.426Z,999.48
2017-03-19T07:16:47.403Z,999.47
2017-03-19T07:17:47.382Z,999.46
2017-03-19T07:18:47.363Z,999.55
2017-03-19T07:19:47.350Z,999.56
2017-03-19T07:20:47.328Z,999.55
2017-03-19T07:21:47.311Z,999.54
2017-03-19T07:22:47.290Z,999.5
2017-03-19T07:23:47.267Z,999.48
2017-03-19T07:24:47.259Z,999.5
2017-03-19T07:25:47.226Z,999.45
2017-03-19T07:26:47.208Z,999.47
2017-03-19T07:27:47.187Z,999.48
2017-03-19T07:28:47.172Z,999.46
2017-03-19T07:29:47.147Z,999.45
2017-03-19T07:30:47.136Z,999.46
2017-03-19T07:31:47.113Z,999.52
2017-03-19T07:32:47.099Z,999.52
2017-03-19T07:33:47.076Z,999.54
2017-03-19T07:34:47.056Z,999.5
2017-03-19T07:35:47.035Z,999.49
2017-03-19T07:36:47.015Z,999.43
2017-03-19T07:37:46.994Z,999.5
2017-03-19T07:38:46.982Z,999.43
2017-03-19T07:39:46.954Z,999.55
2017-03-19T07:40:46.932Z,999.5
2017-03-19T07:41:46.918Z,999.45
2017-03-19T07:42:46.910Z,999.44
2017-03-19T07:43:46.881Z,999.44
2017-03-19T07:44:46.849Z,999.43
2017-03-19T07:45:46.840Z,999.32
2017-03-19T07:46:46.820Z,999.29
2017-03-19T07:47:46.794Z,999.39
2017-03-19T07:48:46.776Z,999.35
2017-03-19T07:49:46.757Z,999.36
2017-03-19T07:50:46.734Z,999.34
2017-03-19T07:51:46.716Z,999.42
2017-03-19T07:52:46.694Z,999.42
2017-03-19T07:53:46.673Z,999.36
2017-03-19T07:54:46.664Z,999.33
2017-03-19T07:55:46.635Z,999.39
2017-03-19T07:56:46.622Z,999.43
2017-03-19T07:57:46.604Z,999.38
2017-03-19T07:58:46.584Z,999.36
2017-03-19T07:59:46.561Z,999.3
2017-03-19T08:00:46.540Z,999.47
2017-03-19T08:01:46.518Z,999.38
2017-03-19T08:02:46.501Z,999.41
2017-03-19T08:03:46.487Z,999.39
2017-03-19T08:04:46.469Z,999.41
2017-03-19T08:05:46.446Z,999.5
2017-03-19T08:06:46.428Z,999.4
2017-03-19T08:07:46.407Z,999.41
2017-03-19T08:08:46.383Z,999.43
2017-03-19T08:09:46.365Z,999.44
2017-03-19T08:10:46.347Z,999.35
2017-03-19T08:11:46.324Z,999.42
2017-03-19T08:12:46.304Z,999.49
2017-03-19T08:13:46.286Z,999.44
2017-03-19T08:14:46.275Z,999.43
2017-03-19T08:15:46.251Z,999.42
2017-03-19T08:16:46.232Z,999.42
2017-03-19T08:17:46.213Z,999.44
2017-03-19T08:18:46.192Z,999.49
2017-03-19T08:19:46.171Z,999.44
2017-03-19T08:20:46.150Z,999.52
2017-03-19T08:21:46.130Z,999.41
2017-03-19T08:22:46.117Z,999.51
2017-03-19T08:23:46.094Z,999.38
2017-03-19T08:24:46.106Z,999.44
2017-03-19T08:25:46.053Z,999.43
2017-03-19T08:26:46.034Z,999.44
2017-03-19T08:27:46.018Z,999.45
2017-03-19T08:28:45.996Z,999.41
2017-03-19T08:29:45.975Z,999.46
2017-03-19T08:30:45.959Z,999.5
2017-03-19T08:31:45.942Z,999.51
2017-03-19T08:32:45.918Z,999.5
2017-03-19T08:33:45.903Z,999.42
2017-03-19T08:34:45.884Z,999.3
2017-03-19T08:35:45.860Z,999.39
2017-03-19T08:36:45.843Z,999.35
2017-03-19T08:37:45.822Z,999.39
2017-03-19T08:38:45.803Z,999.42
2017-03-19T08:39:45.778Z,999.39
2017-03-19T08:40:45.767Z,999.49
2017-03-19T08:41:45.745Z,999.5
2017-03-19T08:42:45.728Z,999.41
2017-03-19T08:43:45.704Z,999.5
2017-03-19T08:44:45.698Z,999.51
2017-03-19T08:45:45.667Z,999.46
2017-03-19T08:46:45.646Z,999.46
2017-03-19T08:47:45.629Z,999.51
2017-03-19T08:48:45.606Z,999.46
2017-03-19T08:49:45.588Z,999.45
2017-03-19T08:50:45.568Z,999.49
2017-03-19T08:51:45.550Z,999.51
2017-03-19T08:52:45.532Z,999.42
2017-03-19T08:53:45.513Z,999.51
2017-03-19T08:54:45.491Z,999.46
2017-03-19T08:55:45.474Z,999.36
2017-03-19T08:56:45.457Z,999.35
2017-03-19T08:57:45.430Z,999.33
2017-03-19T08:58:45.429Z,999.3
2017-03-19T08:59:45.397Z,999.39
2017-03-19T09:00:45.375Z,999.32
2017-03-19T09:01:45.354Z,999.35
2017-03-19T09:02:45.336Z,999.43
2017-03-19T09:03:45.320Z,999.32
2017-03-19T09:04:45.306Z,999.45
2017-03-19T09:05:45.276Z,999.41
2017-03-19T09:06:45.263Z,999.46
2017-03-19T09:07:45.238Z,999.48
2017-03-19T09:08:45.219Z,999.42
2017-03-19T09:09:45.198Z,999.49
2017-03-19T09:10:45.184Z,999.48
2017-03-19T09:11:45.165Z,999.34
2017-03-19T09:12:45.144Z,999.49
2017-03-19T09:13:45.123Z,999.46
2017-03-19T09:14:45.112Z,999.43
2017-03-19T09:15:45.091Z,999.38
2017-03-19T09:16:45.064Z,999.41
2017-03-19T09:17:45.059Z,999.42
2017-03-19T09:18:45.028Z,999.44
2017-03-19T09:19:45.009Z,999.38
2017-03-19T09:20:44.985Z,999.44
2017-03-19T09:21:44.970Z,999.42
2017-03-19T09:22:44.951Z,999.49
2017-03-19T09:23:44.938Z,999.43
2017-03-19T09:24:44.912Z,999.42
2017-03-19T09:25:44.892Z,999.5
2017-03-19T09:26:44.872Z,999.52
2017-03-19T09:27:44.855Z,999.47
2017-03-19T09:28:44.837Z,999.51
2017-03-19T09:29:44.825Z,999.6
2017-03-19T09:30:44.794Z,999.44
2017-03-19T09:31:44.774Z,999.51
2017-03-19T09:32:44.757Z,999.56
2017-03-19T09:33:44.750Z,999.51
2017-03-19T09:34:44.721Z,999.56
2017-03-19T09:35:44.702Z,999.5
2017-03-19T09:36:44.681Z,999.5
2017-03-19T09:37:44.661Z,999.57
2017-03-19T09:38:44.641Z,999.55
2017-03-19T09:39:44.631Z,999.54
2017-03-19T09:40:44.604Z,999.52
2017-03-19T09:41:44.590Z,999.51
2017-03-19T09:42:44.569Z,999.53
2017-03-19T09:43:44.546Z,999.61
2017-03-19T09:44:44.526Z,999.56
2017-03-19T09:45:44.504Z,999.57
2017-03-19T09:46:44.483Z,999.6
2017-03-19T09:47:44.474Z,999.54
2017-03-19T09:48:44.450Z,999.58
2017-03-19T09:49:44.434Z,999.56
2017-03-19T09:50:44.414Z,999.44
2017-03-19T09:54:44.332Z,999.31
2017-03-19T09:55:44.315Z,999.41
2017-03-19T09:56:44.296Z,999.43
2017-03-19T09:57:44.275Z,999.38
2017-03-19T09:58:44.264Z,999.49
2017-03-19T09:59:44.236Z,999.46
2017-03-19T10:00:44.223Z,999.4
2017-03-19T10:01:44.205Z,999.47
2017-03-19T10:02:44.179Z,999.49
2017-03-19T10:03:44.158Z,999.38
2017-03-19T10:04:44.141Z,999.37
2017-03-19T10:05:44.121Z,999.38
2017-03-19T10:06:44.102Z,999.37
2017-03-19T10:07:44.081Z,999.38
2017-03-19T10:08:44.065Z,999.29
2017-03-19T10:09:44.048Z,999.2
2017-03-19T10:10:44.078Z,999.1
2017-03-19T10:11:44.006Z,999.21
2017-03-19T10:12:43.992Z,999.28
2017-03-19T10:13:43.971Z,999.29
2017-03-19T10:14:43.954Z,999.21
2017-03-19T10:15:43.962Z,999.16
2017-03-19T10:16:43.914Z,999.14
2017-03-19T10:17:43.892Z,999.11
2017-03-19T10:18:43.871Z,999.09
2017-03-19T10:19:43.858Z,999.05
2017-03-19T10:20:43.836Z,999.01
2017-03-19T10:21:43.820Z,999.15
2017-03-19T10:22:43.801Z,999.1
2017-03-19T10:23:43.781Z,999.07
2017-03-19T10:24:43.765Z,999.09
2017-03-19T10:25:43.740Z,999.16
2017-03-19T10:26:43.726Z,999.18
2017-03-19T10:27:43.707Z,999.17
2017-03-19T10:28:43.688Z,999.3
2017-03-19T10:29:43.670Z,999.2
2017-03-19T10:30:43.647Z,999.13
2017-03-19T10:31:43.638Z,999.14
2017-03-19T10:32:43.620Z,999.11
2017-03-19T10:33:43.593Z,999.16
2017-03-19T10:34:43.577Z,999.14
2017-03-19T10:35:43.556Z,999.09
2017-03-19T10:36:43.536Z,999.19
2017-03-19T10:37:43.515Z,999.18
2017-03-19T10:38:43.497Z,999.1
2017-03-19T10:39:43.486Z,999.2
2017-03-19T10:40:43.461Z,999.13
2017-03-19T10:41:43.443Z,999.19
2017-03-19T10:42:43.425Z,999.03
2017-03-19T10:43:43.409Z,999.13
2017-03-19T10:44:43.388Z,999.12
2017-03-19T10:45:43.368Z,999.08
2017-03-19T10:46:43.353Z,999.08
2017-03-19T10:47:43.328Z,999.09
2017-03-19T10:48:43.317Z,999.03
2017-03-19T10:49:43.298Z,999.11
2017-03-19T10:50:43.276Z,999.13
2017-03-19T10:51:43.257Z,999.14
2017-03-19T10:52:43.240Z,999.16
2017-03-19T10:53:43.215Z,999.17
2017-03-19T10:54:43.196Z,999.17
2017-03-19T10:55:43.177Z,999.19
2017-03-19T10:56:43.169Z,999.19
2017-03-19T10:57:43.147Z,999.26
2017-03-19T10:58:43.176Z,999.21
2017-03-19T10:59:43.117Z,999.16
2017-03-19T11:00:43.097Z,999.2
2017-03-19T11:01:43.069Z,999.15
2017-03-19T11:02:43.049Z,999.19
2017-03-19T11:03:43.027Z,999.2
2017-03-19T11:04:43.012Z,999.15
2017-03-19T11:05:42.999Z,999.25
2017-03-19T11:06:42.973Z,999.16
2017-03-19T11:07:42.957Z,999.23
2017-03-19T11:08:42.936Z,999.1
2017-03-19T11:09:42.917Z,999.14
2017-03-19T11:10:42.897Z,999.07
2017-03-19T11:11:42.889Z,999.11
2017-03-19T11:12:42.867Z,999.11
2017-03-19T11:13:42.852Z,999.16
2017-03-19T11:14:42.825Z,999.14
2017-03-19T11:15:42.808Z,999.11
2017-03-19T11:16:42.788Z,999.15
2017-03-19T11:17:42.778Z,999.14
2017-03-19T11:18:42.756Z,999.11
2017-03-19T11:19:42.739Z,999.11
2017-03-19T11:20:42.717Z,999.12
2017-03-19T11:21:42.701Z,999.01
2017-03-19T11:22:42.678Z,998.96
2017-03-19T11:23:42.657Z,998.97
2017-03-19T11:24:42.646Z,998.91
2017-03-19T11:25:42.624Z,998.86
2017-03-19T11:26:42.604Z,998.76
2017-03-19T11:27:42.582Z,998.77
2017-03-19T11:28:42.567Z,998.76
2017-03-19T11:29:42.546Z,998.82
2017-03-19T11:30:42.575Z,998.8
2017-03-19T11:31:42.517Z,998.83
2017-03-19T11:32:42.490Z,998.88
2017-03-19T11:33:42.486Z,998.98
2017-03-19T11:34:42.455Z,998.93
2017-03-19T11:35:42.437Z,998.91
2017-03-19T11:36:42.423Z,998.88
2017-03-19T11:37:42.404Z,998.94
2017-03-19T11:38:42.387Z,998.92
2017-03-19T11:39:42.366Z,999
2017-03-19T11:40:42.350Z,998.93
2017-03-19T11:41:42.331Z,998.96
2017-03-19T11:42:42.318Z,998.99
2017-03-19T11:43:42.296Z,999.06
2017-03-19T11:44:42.277Z,999
2017-03-19T11:45:42.254Z,999.11
2017-03-19T11:46:42.238Z,998.96
2017-03-19T11:47:42.229Z,999
2017-03-19T11:48:42.204Z,998.88
2017-03-19T11:49:42.222Z,999.04
2017-03-19T11:50:42.174Z,998.98
2017-03-19T11:51:42.156Z,999.01
2017-03-19T11:52:42.139Z,999.13
2017-03-19T11:53:42.117Z,999.18
2017-03-19T11:54:42.096Z,999.07
2017-03-19T11:55:42.077Z,999.1
2017-03-19T11:56:42.060Z,999.05
2017-03-19T11:57:42.048Z,999.03
2017-03-19T11:58:42.037Z,999.01
2017-03-19T11:59:42.014Z,998.95
2017-03-19T12:00:41.993Z,998.97
2017-03-19T12:01:41.976Z,999
2017-03-19T12:02:41.960Z,999.04
2017-03-19T12:03:41.936Z,999.05
2017-03-19T12:04:41.913Z,999.08
2017-03-19T12:05:41.896Z,999.02
2017-03-19T12:06:41.886Z,999
2017-03-19T12:07:41.867Z,999.02
2017-03-19T12:08:41.845Z,999.1
2017-03-19T12:09:41.823Z,999.07
2017-03-19T12:10:41.806Z,999.15
2017-03-19T12:11:41.792Z,999.04
2017-03-19T12:12:41.776Z,999.15
2017-03-19T12:13:41.758Z,999.15
2017-03-19T12:14:41.746Z,999.21
2017-03-19T12:15:41.724Z,999.32
2017-03-19T12:16:41.695Z,999.21
2017-03-19T12:17:41.686Z,999.46
2017-03-19T12:18:41.665Z,999.32
2017-03-19T12:19:41.645Z,999.2
2017-03-19T12:20:41.629Z,999.29
2017-03-19T12:21:41.606Z,999.32
2017-03-19T12:22:41.598Z,999.26
2017-03-19T12:23:41.601Z,999.33